Station Historical Data
Daily Summary for April 2, 2017 Units:  Both    English   Metric
« Previous Day
Next Day »
Daily Weekly Monthly Yearly Custom
  High: Low: Average:
Temperature: 47.8 °F /  8.8 °C 32.5 °F /  0.3 °C 40.7 °F /  4.8 °C
Dew Point: 40.1 °F /  4.5 °C 29.9 °F /  -1.2 °C 35.1 °F /  1.7 °C
Humidity: 92% 69% 81%
Wind Speed: 12.0mph /  19.3km/h - 5.1mph /  8.2km/h
Wind Gust: 21.0mph /  33.8km/h - -
Wind- - SW
Pressure: 30.22 in /  1023.2 hPa 30.10 in /  1019.2 hPa -
Precipitation: 0.00 in /  0 mm    
Historical Graphs
 
 
Tabular Data for April 2, 2017
Time Temperature Dew Point Pressure Wind Wind Speed Wind Gust Humidity Rainfall Rate (Hourly)
00:00 34.5 °F /  1.4 °C 31.6 °F /  -0.2 °C 30.17in /  1021.6hPa SW 1.0mph /  1.6km/h 2.0mph /  3.2km/h 89% 0.00in /  0mm
00:05 34.3 °F /  1.3 °C 31.4 °F /  -0.3 °C 30.17in /  1021.6hPa SW 1.0mph /  1.6km/h 2.0mph /  3.2km/h 89% 0.00in /  0mm
00:10 33.9 °F /  1.1 °C 31.0 °F /  -0.6 °C 30.16in /  1021.2hPa SW 1.0mph /  1.6km/h 2.0mph /  3.2km/h 89% 0.00in /  0mm
00:15 33.5 °F /  0.8 °C 30.9 °F /  -0.6 °C 30.16in /  1021.2hPa SW 1.0mph /  1.6km/h 2.0mph /  3.2km/h 90% 0.00in /  0mm
00:19 33.3 °F /  0.7 °C 30.7 °F /  -0.7 °C 30.16in /  1021.2hPa Calm   2.0mph /  3.2km/h 90% 0.00in /  0mm
00:25 33.0 °F /  0.6 °C 30.4 °F /  -0.9 °C 30.16in /  1021.2hPa Calm     90% 0.00in /  0mm
00:30 32.9 °F /  0.5 °C 30.3 °F /  -0.9 °C 30.17in /  1021.6hPa Calm     90% 0.00in /  0mm
00:35 32.7 °F /  0.4 °C 30.1 °F /  -1.1 °C 30.17in /  1021.6hPa Calm     90% 0.00in /  0mm
00:40 32.7 °F /  0.4 °C 30.1 °F /  -1.1 °C 30.17in /  1021.6hPa Calm     90% 0.00in /  0mm
00:45 32.5 °F /  0.3 °C 29.9 °F /  -1.2 °C 30.17in /  1021.6hPa SW 1.0mph /  1.6km/h 2.0mph /  3.2km/h 90% 0.00in /  0mm
00:49 32.7 °F /  0.4 °C 30.4 °F /  -0.9 °C 30.17in /  1021.6hPa SW 1.0mph /  1.6km/h 2.0mph /  3.2km/h 91% 0.00in /  0mm
00:54 33.0 °F /  0.6 °C 30.7 °F /  -0.7 °C 30.17in /  1021.6hPa SSW 1.0mph /  1.6km/h 3.0mph /  4.8km/h 91% 0.00in /  0mm
01:00 33.2 °F /  0.7 °C 30.9 °F /  -0.6 °C 30.17in /  1021.6hPa SSW 2.0mph /  3.2km/h 6.0mph /  9.7km/h 91% 0.00in /  0mm
01:05 33.5 °F /  0.8 °C 31.2 °F /  -0.4 °C 30.17in /  1021.6hPa SSW 2.0mph /  3.2km/h 4.0mph /  6.4km/h 91% 0.00in /  0mm
01:10 33.7 °F /  0.9 °C 31.4 °F /  -0.3 °C 30.18in /  1021.9hPa SSW 2.0mph /  3.2km/h 4.0mph /  6.4km/h 91% 0.00in /  0mm
01:15 33.7 °F /  0.9 °C 31.4 °F /  -0.3 °C 30.17in /  1021.6hPa SSW 2.0mph /  3.2km/h 3.0mph /  4.8km/h 91% 0.00in /  0mm
01:20 33.9 °F /  1.1 °C 31.6 °F /  -0.2 °C 30.17in /  1021.6hPa South 4.0mph /  6.4km/h 5.0mph /  8km/h 91% 0.00in /  0mm
01:25 34.0 °F /  1.1 °C 31.9 °F /  -0.1 °C 30.17in /  1021.6hPa SSW 2.0mph /  3.2km/h 5.0mph /  8km/h 92% 0.00in /  0mm
01:29 34.2 °F /  1.2 °C 31.8 °F /  -0.1 °C 30.17in /  1021.6hPa SSW 2.0mph /  3.2km/h 5.0mph /  8km/h 91% 0.00in /  0mm
01:34 34.3 °F /  1.3 °C 31.9 °F /  -0.1 °C 30.17in /  1021.6hPa SW 1.0mph /  1.6km/h 5.0mph /  8km/h 91% 0.00in /  0mm
01:39 34.4 °F /  1.3 °C 32.0 °F /  0 °C 30.17in /  1021.6hPa SSW 1.0mph /  1.6km/h 4.0mph /  6.4km/h 91% 0.00in /  0mm
01:44 34.6 °F /  1.4 °C 32.2 °F /  0.1 °C 30.17in /  1021.6hPa SSW 1.0mph /  1.6km/h 6.0mph /  9.7km/h 91% 0.00in /  0mm
01:49 34.6 °F /  1.4 °C 32.2 °F /  0.1 °C 30.17in /  1021.6hPa SSW 2.0mph /  3.2km/h 5.0mph /  8km/h 91% 0.00in /  0mm
01:55 34.5 °F /  1.4 °C 32.1 °F /  0.1 °C 30.17in /  1021.6hPa SW 2.0mph /  3.2km/h 5.0mph /  8km/h 91% 0.00in /  0mm
01:59 34.5 °F /  1.4 °C 32.1 °F /  0.1 °C 30.17in /  1021.6hPa SW 2.0mph /  3.2km/h 5.0mph /  8km/h 91% 0.00in /  0mm
02:05 34.5 °F /  1.4 °C 32.1 °F /  0.1 °C 30.17in /  1021.6hPa SSW 2.0mph /  3.2km/h 5.0mph /  8km/h 91% 0.00in /  0mm
02:10 34.3 °F /  1.3 °C 31.9 °F /  -0.1 °C 30.17in /  1021.6hPa SSW 2.0mph /  3.2km/h 4.0mph /  6.4km/h 91% 0.00in /  0mm
02:15 34.3 °F /  1.3 °C 31.9 °F /  -0.1 °C 30.17in /  1021.6hPa SW 2.0mph /  3.2km/h 5.0mph /  8km/h 91% 0.00in /  0mm
02:20 34.4 °F /  1.3 °C 32.0 °F /  0 °C 30.17in /  1021.6hPa SW 4.0mph /  6.4km/h 7.0mph /  11.3km/h 91% 0.00in /  0mm
02:25 34.5 °F /  1.4 °C 32.1 °F /  0.1 °C 30.17in /  1021.6hPa SW 3.0mph /  4.8km/h 4.0mph /  6.4km/h 91% 0.00in /  0mm
02:29 34.6 °F /  1.4 °C 32.2 °F /  0.1 °C 30.17in /  1021.6hPa SW 2.0mph /  3.2km/h 5.0mph /  8km/h 91% 0.00in /  0mm
02:35 34.6 °F /  1.4 °C 32.2 °F /  0.1 °C 30.18in /  1021.9hPa SW 3.0mph /  4.8km/h 7.0mph /  11.3km/h 91% 0.00in /  0mm
02:39 34.6 °F /  1.4 °C 32.2 °F /  0.1 °C 30.18in /  1021.9hPa WSW 4.0mph /  6.4km/h 6.0mph /  9.7km/h 91% 0.00in /  0mm
02:44 34.7 °F /  1.5 °C 32.6 °F /  0.3 °C 30.17in /  1021.6hPa SW 1.0mph /  1.6km/h 7.0mph /  11.3km/h 92% 0.00in /  0mm
02:50 34.8 °F /  1.6 °C 32.4 °F /  0.2 °C 30.17in /  1021.6hPa SW 3.0mph /  4.8km/h 7.0mph /  11.3km/h 91% 0.00in /  0mm
02:54 34.8 °F /  1.6 °C 32.4 °F /  0.2 °C 30.17in /  1021.6hPa SW 3.0mph /  4.8km/h 8.0mph /  12.9km/h 91% 0.00in /  0mm
02:59 34.8 °F /  1.6 °C 32.4 °F /  0.2 °C 30.17in /  1021.6hPa SW 4.0mph /  6.4km/h 8.0mph /  12.9km/h 91% 0.00in /  0mm
03:05 34.8 °F /  1.6 °C 32.4 °F /  0.2 °C 30.17in /  1021.6hPa SW 3.0mph /  4.8km/h 7.0mph /  11.3km/h 91% 0.00in /  0mm
03:09 34.8 °F /  1.6 °C 32.4 °F /  0.2 °C 30.17in /  1021.6hPa SW 5.0mph /  8km/h 6.0mph /  9.7km/h 91% 0.00in /  0mm
03:15 34.8 °F /  1.6 °C 32.4 °F /  0.2 °C 30.17in /  1021.6hPa SW 4.0mph /  6.4km/h 7.0mph /  11.3km/h 91% 0.00in /  0mm
03:20 34.7 °F /  1.5 °C 32.3 °F /  0.2 °C 30.17in /  1021.6hPa SSW 4.0mph /  6.4km/h 6.0mph /  9.7km/h 91% 0.00in /  0mm
03:25 34.8 °F /  1.6 °C 32.4 °F /  0.2 °C 30.17in /  1021.6hPa SSW 3.0mph /  4.8km/h 8.0mph /  12.9km/h 91% 0.00in /  0mm
03:30 34.8 °F /  1.6 °C 32.4 °F /  0.2 °C 30.17in /  1021.6hPa SSW 4.0mph /  6.4km/h 8.0mph /  12.9km/h 91% 0.00in /  0mm
03:34 34.8 °F /  1.6 °C 32.4 °F /  0.2 °C 30.17in /  1021.6hPa SW 4.0mph /  6.4km/h 8.0mph /  12.9km/h 91% 0.00in /  0mm
03:39 34.8 °F /  1.6 °C 32.4 °F /  0.2 °C 30.17in /  1021.6hPa SW 4.0mph /  6.4km/h 7.0mph /  11.3km/h 91% 0.00in /  0mm
03:45 34.8 °F /  1.6 °C 32.4 °F /  0.2 °C 30.17in /  1021.6hPa SW 4.0mph /  6.4km/h 7.0mph /  11.3km/h 91% 0.00in /  0mm
03:50 34.9 °F /  1.6 °C 32.5 °F /  0.3 °C 30.17in /  1021.6hPa SW 4.0mph /  6.4km/h 9.0mph /  14.5km/h 91% 0.00in /  0mm
03:54 35.0 °F /  1.7 °C 32.4 °F /  0.2 °C 30.18in /  1021.9hPa SW 4.0mph /  6.4km/h 9.0mph /  14.5km/h 90% 0.00in /  0mm
03:59 35.1 °F /  1.7 °C 32.5 °F /  0.3 °C 30.18in /  1021.9hPa SW 6.0mph /  9.7km/h 10.0mph /  16.1km/h 90% 0.00in /  0mm
04:04 35.1 °F /  1.7 °C 32.5 °F /  0.3 °C 30.18in /  1021.9hPa SW 4.0mph /  6.4km/h 10.0mph /  16.1km/h 90% 0.00in /  0mm
04:09 35.2 °F /  1.8 °C 32.6 °F /  0.3 °C 30.18in /  1021.9hPa SW 4.0mph /  6.4km/h 9.0mph /  14.5km/h 90% 0.00in /  0mm
04:14 35.2 °F /  1.8 °C 32.6 °F /  0.3 °C 30.18in /  1021.9hPa SW 4.0mph /  6.4km/h 8.0mph /  12.9km/h 90% 0.00in /  0mm
04:19 35.2 °F /  1.8 °C 32.6 °F /  0.3 °C 30.18in /  1021.9hPa WSW 8.0mph /  12.9km/h 9.0mph /  14.5km/h 90% 0.00in /  0mm
04:25 35.3 °F /  1.8 °C 32.7 °F /  0.4 °C 30.18in /  1021.9hPa SW 4.0mph /  6.4km/h 12.0mph /  19.3km/h 90% 0.00in /  0mm
04:30 35.3 °F /  1.8 °C 32.7 °F /  0.4 °C 30.18in /  1021.9hPa SW 4.0mph /  6.4km/h 10.0mph /  16.1km/h 90% 0.00in /  0mm
04:35 35.4 °F /  1.9 °C 32.8 °F /  0.4 °C 30.18in /  1021.9hPa SW 3.0mph /  4.8km/h 8.0mph /  12.9km/h 90% 0.00in /  0mm
04:39 35.4 °F /  1.9 °C 32.5 °F /  0.3 °C 30.18in /  1021.9hPa SW 5.0mph /  8km/h 10.0mph /  16.1km/h 89% 0.00in /  0mm
04:44 35.5 °F /  1.9 °C 32.6 °F /  0.3 °C 30.18in /  1021.9hPa SW 4.0mph /  6.4km/h 10.0mph /  16.1km/h 89% 0.00in /  0mm
04:50 35.4 °F /  1.9 °C 32.5 °F /  0.3 °C 30.18in /  1021.9hPa SW 4.0mph /  6.4km/h 9.0mph /  14.5km/h 89% 0.00in /  0mm
04:55 35.4 °F /  1.9 °C 32.5 °F /  0.3 °C 30.19in /  1022.2hPa SW 4.0mph /  6.4km/h 9.0mph /  14.5km/h 89% 0.00in /  0mm
05:00 35.4 °F /  1.9 °C 32.5 °F /  0.3 °C 30.19in /  1022.2hPa SW 5.0mph /  8km/h 9.0mph /  14.5km/h 89% 0.00in /  0mm
05:04 35.3 °F /  1.8 °C 32.4 °F /  0.2 °C 30.19in /  1022.2hPa WSW 5.0mph /  8km/h 8.0mph /  12.9km/h 89% 0.00in /  0mm
05:09 35.3 °F /  1.8 °C 32.4 °F /  0.2 °C 30.19in /  1022.2hPa SW 4.0mph /  6.4km/h 6.0mph /  9.7km/h 89% 0.00in /  0mm
05:14 35.2 °F /  1.8 °C 32.3 °F /  0.2 °C 30.19in /  1022.2hPa SW 4.0mph /  6.4km/h 7.0mph /  11.3km/h 89% 0.00in /  0mm
05:19 35.1 °F /  1.7 °C 32.2 °F /  0.1 °C 30.18in /  1021.9hPa SSW 3.0mph /  4.8km/h 6.0mph /  9.7km/h 89% 0.00in /  0mm
05:24 35.0 °F /  1.7 °C 32.1 °F /  0.1 °C 30.18in /  1021.9hPa SSW 2.0mph /  3.2km/h 6.0mph /  9.7km/h 89% 0.00in /  0mm
05:30 35.0 °F /  1.7 °C 32.1 °F /  0.1 °C 30.18in /  1021.9hPa SSW 4.0mph /  6.4km/h 6.0mph /  9.7km/h 89% 0.00in /  0mm
05:34 34.9 °F /  1.6 °C 32.0 °F /  0 °C 30.19in /  1022.2hPa SW 2.0mph /  3.2km/h 5.0mph /  8km/h 89% 0.00in /  0mm
05:40 34.9 °F /  1.6 °C 32.0 °F /  0 °C 30.19in /  1022.2hPa SW 2.0mph /  3.2km/h 7.0mph /  11.3km/h 89% 0.00in /  0mm
05:44 35.0 °F /  1.7 °C 32.1 °F /  0.1 °C 30.19in /  1022.2hPa SW 3.0mph /  4.8km/h 7.0mph /  11.3km/h 89% 0.00in /  0mm
05:49 35.1 °F /  1.7 °C 32.2 °F /  0.1 °C 30.19in /  1022.2hPa SW 3.0mph /  4.8km/h 7.0mph /  11.3km/h 89% 0.00in /  0mm
05:54 35.0 °F /  1.7 °C 32.1 °F /  0.1 °C 30.19in /  1022.2hPa SW 4.0mph /  6.4km/h 9.0mph /  14.5km/h 89% 0.00in /  0mm
06:00 35.2 °F /  1.8 °C 32.3 °F /  0.2 °C 30.19in /  1022.2hPa SW 4.0mph /  6.4km/h 9.0mph /  14.5km/h 89% 0.00in /  0mm
06:05 35.3 °F /  1.8 °C 32.4 °F /  0.2 °C 30.19in /  1022.2hPa SW 5.0mph /  8km/h 9.0mph /  14.5km/h 89% 0.00in /  0mm
06:10 35.5 °F /  1.9 °C 32.6 °F /  0.3 °C 30.18in /  1021.9hPa SW 5.0mph /  8km/h 10.0mph /  16.1km/h 89% 0.00in /  0mm
06:14 35.6 °F /  2 °C 32.7 °F /  0.4 °C 30.18in /  1021.9hPa SSW 5.0mph /  8km/h 8.0mph /  12.9km/h 89% 0.00in /  0mm
06:19 35.6 °F /  2 °C 32.7 °F /  0.4 °C 30.18in /  1021.9hPa SW 5.0mph /  8km/h 10.0mph /  16.1km/h 89% 0.00in /  0mm
06:24 35.7 °F /  2.1 °C 32.8 °F /  0.4 °C 30.18in /  1021.9hPa SSW 7.0mph /  11.3km/h 11.0mph /  17.7km/h 89% 0.00in /  0mm
06:29 35.7 °F /  2.1 °C 32.8 °F /  0.4 °C 30.18in /  1021.9hPa SSW 6.0mph /  9.7km/h 12.0mph /  19.3km/h 89% 0.00in /  0mm
06:34 35.7 °F /  2.1 °C 33.1 °F /  0.6 °C 30.19in /  1022.2hPa WSW 4.0mph /  6.4km/h 11.0mph /  17.7km/h 90% 0.00in /  0mm
06:39 35.9 °F /  2.2 °C 33.0 °F /  0.6 °C 30.18in /  1021.9hPa SW 8.0mph /  12.9km/h 11.0mph /  17.7km/h 89% 0.00in /  0mm
06:44 35.9 °F /  2.2 °C 33.0 °F /  0.6 °C 30.19in /  1022.2hPa SW 4.0mph /  6.4km/h 14.0mph /  22.5km/h 89% 0.00in /  0mm
06:49 36.0 °F /  2.2 °C 33.4 °F /  0.8 °C 30.19in /  1022.2hPa SW 5.0mph /  8km/h 14.0mph /  22.5km/h 90% 0.00in /  0mm
06:54 36.1 °F /  2.3 °C 33.5 °F /  0.8 °C 30.20in /  1022.6hPa SW 5.0mph /  8km/h 10.0mph /  16.1km/h 90% 0.00in /  0mm
06:59 36.3 °F /  2.4 °C 33.6 °F /  0.9 °C 30.20in /  1022.6hPa SW 6.0mph /  9.7km/h 12.0mph /  19.3km/h 90% 0.00in /  0mm
07:04 36.4 °F /  2.4 °C 33.5 °F /  0.8 °C 30.19in /  1022.2hPa SW 6.0mph /  9.7km/h 12.0mph /  19.3km/h 89% 0.00in /  0mm
07:10 36.6 °F /  2.6 °C 33.7 °F /  0.9 °C 30.19in /  1022.2hPa SW 6.0mph /  9.7km/h 11.0mph /  17.7km/h 89% 0.00in /  0mm
07:15 36.8 °F /  2.7 °C 33.9 °F /  1.1 °C 30.19in /  1022.2hPa SW 6.0mph /  9.7km/h 10.0mph /  16.1km/h 89% 0.00in /  0mm
07:20 37.0 °F /  2.8 °C 34.1 °F /  1.2 °C 30.19in /  1022.2hPa SW 5.0mph /  8km/h 10.0mph /  16.1km/h 89% 0.00in /  0mm
07:24 37.1 °F /  2.8 °C 34.2 °F /  1.2 °C 30.19in /  1022.2hPa SW 5.0mph /  8km/h 11.0mph /  17.7km/h 89% 0.00in /  0mm
07:29 37.2 °F /  2.9 °C 34.3 °F /  1.3 °C 30.20in /  1022.6hPa SSW 3.0mph /  4.8km/h 9.0mph /  14.5km/h 89% 0.00in /  0mm
07:34 37.4 °F /  3 °C 34.2 °F /  1.2 °C 30.20in /  1022.6hPa SW 4.0mph /  6.4km/h 9.0mph /  14.5km/h 88% 0.00in /  0mm
07:39 37.7 °F /  3.2 °C 34.5 °F /  1.4 °C 30.20in /  1022.6hPa SW 3.0mph /  4.8km/h 7.0mph /  11.3km/h 88% 0.00in /  0mm
07:44 37.8 °F /  3.2 °C 34.6 °F /  1.4 °C 30.20in /  1022.6hPa SSW 5.0mph /  8km/h 11.0mph /  17.7km/h 88% 0.00in /  0mm
07:49 38.0 °F /  3.3 °C 34.8 °F /  1.6 °C 30.20in /  1022.6hPa SW 6.0mph /  9.7km/h 11.0mph /  17.7km/h 88% 0.00in /  0mm
07:54 38.2 °F /  3.4 °C 35.0 °F /  1.7 °C 30.21in /  1022.9hPa SW 6.0mph /  9.7km/h 10.0mph /  16.1km/h 88% 0.00in /  0mm
07:59 38.4 °F /  3.6 °C 35.2 °F /  1.8 °C 30.21in /  1022.9hPa SW 5.0mph /  8km/h 13.0mph /  20.9km/h 88% 0.00in /  0mm
08:04 38.5 °F /  3.6 °C 35.0 °F /  1.7 °C 30.21in /  1022.9hPa SW 6.0mph /  9.7km/h 13.0mph /  20.9km/h 87% 0.00in /  0mm
08:09 38.6 °F /  3.7 °C 35.1 °F /  1.7 °C 30.20in /  1022.6hPa SW 6.0mph /  9.7km/h 12.0mph /  19.3km/h 87% 0.00in /  0mm
08:14 38.7 °F /  3.7 °C 35.2 °F /  1.8 °C 30.20in /  1022.6hPa SW 5.0mph /  8km/h 10.0mph /  16.1km/h 87% 0.00in /  0mm
08:19 38.7 °F /  3.7 °C 35.2 °F /  1.8 °C 30.20in /  1022.6hPa SW 5.0mph /  8km/h 10.0mph /  16.1km/h 87% 0.00in /  0mm
08:25 38.7 °F /  3.7 °C 35.2 °F /  1.8 °C 30.20in /  1022.6hPa SW 3.0mph /  4.8km/h 13.0mph /  20.9km/h 87% 0.00in /  0mm
08:29 38.7 °F /  3.7 °C 35.2 °F /  1.8 °C 30.20in /  1022.6hPa SW 5.0mph /  8km/h 13.0mph /  20.9km/h 87% 0.00in /  0mm
08:34 38.8 °F /  3.8 °C 35.3 °F /  1.8 °C 30.20in /  1022.6hPa SW 5.0mph /  8km/h 9.0mph /  14.5km/h 87% 0.00in /  0mm
08:40 39.0 °F /  3.9 °C 35.5 °F /  1.9 °C 30.20in /  1022.6hPa SW 5.0mph /  8km/h 9.0mph /  14.5km/h 87% 0.00in /  0mm
08:44 39.2 °F /  4 °C 35.7 °F /  2.1 °C 30.21in /  1022.9hPa SW 5.0mph /  8km/h 12.0mph /  19.3km/h 87% 0.00in /  0mm
08:49 39.5 °F /  4.2 °C 36.0 °F /  2.2 °C 30.21in /  1022.9hPa WSW 4.0mph /  6.4km/h 13.0mph /  20.9km/h 87% 0.00in /  0mm
08:54 39.8 °F /  4.3 °C 36.0 °F /  2.2 °C 30.21in /  1022.9hPa SW 5.0mph /  8km/h 11.0mph /  17.7km/h 86% 0.00in /  0mm
08:59 40.0 °F /  4.4 °C 36.2 °F /  2.3 °C 30.21in /  1022.9hPa SSW 6.0mph /  9.7km/h 14.0mph /  22.5km/h 86% 0.00in /  0mm
09:04 40.3 °F /  4.6 °C 36.4 °F /  2.4 °C 30.21in /  1022.9hPa WSW 8.0mph /  12.9km/h 14.0mph /  22.5km/h 86% 0.00in /  0mm
09:09 40.4 °F /  4.7 °C 36.5 °F /  2.5 °C 30.21in /  1022.9hPa SW 9.0mph /  14.5km/h 9.0mph /  14.5km/h 86% 0.00in /  0mm
09:14 40.7 °F /  4.8 °C 36.8 °F /  2.7 °C 30.21in /  1022.9hPa SW 7.0mph /  11.3km/h 13.0mph /  20.9km/h 86% 0.00in /  0mm
09:19 40.9 °F /  4.9 °C 36.7 °F /  2.6 °C 30.21in /  1022.9hPa WSW 8.0mph /  12.9km/h 14.0mph /  22.5km/h 85% 0.00in /  0mm
09:24 40.9 °F /  4.9 °C 36.7 °F /  2.6 °C 30.21in /  1022.9hPa SW 10.0mph /  16.1km/h 14.0mph /  22.5km/h 85% 0.00in /  0mm
09:29 41.4 °F /  5.2 °C 37.5 °F /  3.1 °C 30.21in /  1022.9hPa West 7.0mph /  11.3km/h 15.0mph /  24.1km/h 86% 0.00in /  0mm
09:34 42.0 °F /  5.6 °C 37.8 °F /  3.2 °C 30.21in /  1022.9hPa WSW 8.0mph /  12.9km/h 15.0mph /  24.1km/h 85% 0.00in /  0mm
09:39 42.0 °F /  5.6 °C 37.5 °F /  3.1 °C 30.21in /  1022.9hPa WSW 8.0mph /  12.9km/h 18.0mph /  29km/h 84% 0.00in /  0mm
09:44 42.1 °F /  5.6 °C 37.3 °F /  2.9 °C 30.21in /  1022.9hPa WSW 9.0mph /  14.5km/h 18.0mph /  29km/h 83% 0.00in /  0mm
09:50 42.6 °F /  5.9 °C 37.8 °F /  3.2 °C 30.22in /  1023.2hPa WSW 8.0mph /  12.9km/h 15.0mph /  24.1km/h 83% 0.00in /  0mm
09:54 43.2 °F /  6.2 °C 38.1 °F /  3.4 °C 30.22in /  1023.2hPa WSW 7.0mph /  11.3km/h 16.0mph /  25.7km/h 82% 0.00in /  0mm
09:59 43.0 °F /  6.1 °C 37.6 °F /  3.1 °C 30.22in /  1023.2hPa WSW 5.0mph /  8km/h 17.0mph /  27.4km/h 81% 0.00in /  0mm
10:04 43.2 °F /  6.2 °C 38.1 °F /  3.4 °C 30.22in /  1023.2hPa West 8.0mph /  12.9km/h 14.0mph /  22.5km/h 82% 0.00in /  0mm
10:09 43.0 °F /  6.1 °C 37.6 °F /  3.1 °C 30.22in /  1023.2hPa WSW 6.0mph /  9.7km/h 21.0mph /  33.8km/h 81% 0.00in /  0mm
10:14 43.1 °F /  6.2 °C 38.0 °F /  3.3 °C 30.22in /  1023.2hPa SW 7.0mph /  11.3km/h 14.0mph /  22.5km/h 82% 0.00in /  0mm
10:19 43.0 °F /  6.1 °C 37.6 °F /  3.1 °C 30.22in /  1023.2hPa NW 8.0mph /  12.9km/h 15.0mph /  24.1km/h 81% 0.00in /  0mm
10:24 42.9 °F /  6.1 °C 37.5 °F /  3.1 °C 30.22in /  1023.2hPa WSW 12.0mph /  19.3km/h 18.0mph /  29km/h 81% 0.00in /  0mm
10:29 43.0 °F /  6.1 °C 37.6 °F /  3.1 °C 30.22in /  1023.2hPa WSW 11.0mph /  17.7km/h 16.0mph /  25.7km/h 81% 0.00in /  0mm
10:34 43.5 °F /  6.4 °C 38.1 °F /  3.4 °C 30.22in /  1023.2hPa SW 8.0mph /  12.9km/h 15.0mph /  24.1km/h 81% 0.00in /  0mm
10:39 43.6 °F /  6.4 °C 37.8 °F /  3.2 °C 30.22in /  1023.2hPa SW 8.0mph /  12.9km/h 16.0mph /  25.7km/h 80% 0.00in /  0mm
10:44 43.2 °F /  6.2 °C 37.4 °F /  3 °C 30.22in /  1023.2hPa SW 9.0mph /  14.5km/h 18.0mph /  29km/h 80% 0.00in /  0mm
10:49 43.2 °F /  6.2 °C 37.8 °F /  3.2 °C 30.22in /  1023.2hPa WSW 10.0mph /  16.1km/h 19.0mph /  30.6km/h 81% 0.00in /  0mm
10:54 43.2 °F /  6.2 °C 37.4 °F /  3 °C 30.22in /  1023.2hPa WSW 10.0mph /  16.1km/h 19.0mph /  30.6km/h 80% 0.00in /  0mm
10:59 43.4 °F /  6.3 °C 37.6 °F /  3.1 °C 30.22in /  1023.2hPa WSW 10.0mph /  16.1km/h 17.0mph /  27.4km/h 80% 0.00in /  0mm
11:04 43.9 °F /  6.6 °C 38.4 °F /  3.6 °C 30.22in /  1023.2hPa SSW 4.0mph /  6.4km/h 14.0mph /  22.5km/h 81% 0.00in /  0mm
11:09 44.1 °F /  6.7 °C 38.0 °F /  3.3 °C 30.22in /  1023.2hPa WSW 6.0mph /  9.7km/h 17.0mph /  27.4km/h 79% 0.00in /  0mm
11:14 43.6 °F /  6.4 °C 37.8 °F /  3.2 °C 30.22in /  1023.2hPa SW 9.0mph /  14.5km/h 17.0mph /  27.4km/h 80% 0.00in /  0mm
11:19 43.9 °F /  6.6 °C 38.1 °F /  3.4 °C 30.22in /  1023.2hPa WSW 5.0mph /  8km/h 16.0mph /  25.7km/h 80% 0.00in /  0mm
11:24 44.2 °F /  6.8 °C 38.1 °F /  3.4 °C 30.21in /  1022.9hPa SW 7.0mph /  11.3km/h 15.0mph /  24.1km/h 79% 0.00in /  0mm
11:29 44.3 °F /  6.8 °C 37.9 °F /  3.3 °C 30.21in /  1022.9hPa WSW 9.0mph /  14.5km/h 15.0mph /  24.1km/h 78% 0.00in /  0mm
11:34 44.7 °F /  7.1 °C 38.3 °F /  3.5 °C 30.21in /  1022.9hPa WSW 6.0mph /  9.7km/h 13.0mph /  20.9km/h 78% 0.00in /  0mm
11:39 45.2 °F /  7.3 °C 38.7 °F /  3.7 °C 30.21in /  1022.9hPa WSW 6.0mph /  9.7km/h 13.0mph /  20.9km/h 78% 0.00in /  0mm
11:44 45.7 °F /  7.6 °C 39.2 °F /  4 °C 30.21in /  1022.9hPa WSW 7.0mph /  11.3km/h 13.0mph /  20.9km/h 78% 0.00in /  0mm
11:49 45.5 °F /  7.5 °C 38.7 °F /  3.7 °C 30.21in /  1022.9hPa SW 7.0mph /  11.3km/h 13.0mph /  20.9km/h 77% 0.00in /  0mm
11:54 45.2 °F /  7.3 °C 38.4 °F /  3.6 °C 30.20in /  1022.6hPa SW 7.0mph /  11.3km/h 13.0mph /  20.9km/h 77% 0.00in /  0mm
11:59 45.8 °F /  7.7 °C 39.7 °F /  4.3 °C 30.20in /  1022.6hPa WSW 8.0mph /  12.9km/h 14.0mph /  22.5km/h 79% 0.00in /  0mm
12:04 45.7 °F /  7.6 °C 38.9 °F /  3.8 °C 30.20in /  1022.6hPa SW 8.0mph /  12.9km/h 18.0mph /  29km/h 77% 0.00in /  0mm
12:09 45.2 °F /  7.3 °C 38.1 °F /  3.4 °C 30.20in /  1022.6hPa SW 6.0mph /  9.7km/h 16.0mph /  25.7km/h 76% 0.00in /  0mm
12:14 44.8 °F /  7.1 °C 38.0 °F /  3.3 °C 30.20in /  1022.6hPa South 10.0mph /  16.1km/h 19.0mph /  30.6km/h 77% 0.00in /  0mm
12:19 45.4 °F /  7.4 °C 38.6 °F /  3.7 °C 30.20in /  1022.6hPa SW 9.0mph /  14.5km/h 19.0mph /  30.6km/h 77% 0.00in /  0mm
12:24 45.9 °F /  7.7 °C 39.1 °F /  3.9 °C 30.20in /  1022.6hPa SW 8.0mph /  12.9km/h 14.0mph /  22.5km/h 77% 0.00in /  0mm
12:29 45.6 °F /  7.6 °C 38.5 °F /  3.6 °C 30.20in /  1022.6hPa SW 9.0mph /  14.5km/h 20.0mph /  32.2km/h 76% 0.00in /  0mm
12:34 45.8 °F /  7.7 °C 38.7 °F /  3.7 °C 30.20in /  1022.6hPa SSE 5.0mph /  8km/h 17.0mph /  27.4km/h 76% 0.00in /  0mm
12:39 45.6 °F /  7.6 °C 38.5 °F /  3.6 °C 30.20in /  1022.6hPa West 9.0mph /  14.5km/h 17.0mph /  27.4km/h 76% 0.00in /  0mm
12:44 45.3 °F /  7.4 °C 38.8 °F /  3.8 °C 30.20in /  1022.6hPa SW 12.0mph /  19.3km/h 16.0mph /  25.7km/h 78% 0.00in /  0mm
12:49 44.8 °F /  7.1 °C 38.0 °F /  3.3 °C 30.20in /  1022.6hPa SW 9.0mph /  14.5km/h 16.0mph /  25.7km/h 77% 0.00in /  0mm
12:54 45.4 °F /  7.4 °C 38.9 °F /  3.8 °C 30.20in /  1022.6hPa WSW 9.0mph /  14.5km/h 15.0mph /  24.1km/h 78% 0.00in /  0mm
12:59 45.2 °F /  7.3 °C 38.1 °F /  3.4 °C 30.20in /  1022.6hPa SW 9.0mph /  14.5km/h 17.0mph /  27.4km/h 76% 0.00in /  0mm
13:04 44.8 °F /  7.1 °C 38.0 °F /  3.3 °C 30.19in /  1022.2hPa SW 9.0mph /  14.5km/h 17.0mph /  27.4km/h 77% 0.00in /  0mm
13:09 45.7 °F /  7.6 °C 38.9 °F /  3.8 °C 30.19in /  1022.2hPa SW 8.0mph /  12.9km/h 17.0mph /  27.4km/h 77% 0.00in /  0mm
13:14 46.0 °F /  7.8 °C 39.5 °F /  4.2 °C 30.19in /  1022.2hPa SW 8.0mph /  12.9km/h 15.0mph /  24.1km/h 78% 0.00in /  0mm
13:19 45.9 °F /  7.7 °C 39.1 °F /  3.9 °C 30.19in /  1022.2hPa SW 9.0mph /  14.5km/h 15.0mph /  24.1km/h 77% 0.00in /  0mm
13:24 45.7 °F /  7.6 °C 39.2 °F /  4 °C 30.19in /  1022.2hPa SW 8.0mph /  12.9km/h 16.0mph /  25.7km/h 78% 0.00in /  0mm
13:29 46.2 °F /  7.9 °C 39.1 °F /  3.9 °C 30.19in /  1022.2hPa WSW 10.0mph /  16.1km/h 14.0mph /  22.5km/h 76% 0.00in /  0mm
13:34 46.7 °F /  8.2 °C 39.5 °F /  4.2 °C 30.19in /  1022.2hPa SSW 7.0mph /  11.3km/h 12.0mph /  19.3km/h 76% 0.00in /  0mm
13:39 46.4 °F /  8 °C 38.9 °F /  3.8 °C 30.19in /  1022.2hPa WSW 5.0mph /  8km/h 15.0mph /  24.1km/h 75% 0.00in /  0mm
13:44 46.5 °F /  8.1 °C 39.7 °F /  4.3 °C 30.19in /  1022.2hPa WSW 11.0mph /  17.7km/h 16.0mph /  25.7km/h 77% 0.00in /  0mm
13:49 46.1 °F /  7.8 °C 38.6 °F /  3.7 °C 30.19in /  1022.2hPa SW 5.0mph /  8km/h 16.0mph /  25.7km/h 75% 0.00in /  0mm
13:54 46.3 °F /  7.9 °C 38.8 °F /  3.8 °C 30.19in /  1022.2hPa SW 10.0mph /  16.1km/h 15.0mph /  24.1km/h 75% 0.00in /  0mm
13:59 46.7 °F /  8.2 °C 39.5 °F /  4.2 °C 30.18in /  1021.9hPa WSW 8.0mph /  12.9km/h 15.0mph /  24.1km/h 76% 0.00in /  0mm
14:04 47.6 °F /  8.7 °C 40.1 °F /  4.5 °C 30.19in /  1022.2hPa WSW 7.0mph /  11.3km/h 15.0mph /  24.1km/h 75% 0.00in /  0mm
14:09 47.3 °F /  8.5 °C 38.7 °F /  3.7 °C 30.19in /  1022.2hPa WSW 7.0mph /  11.3km/h 13.0mph /  20.9km/h 72% 0.00in /  0mm
14:14 47.8 °F /  8.8 °C 38.8 °F /  3.8 °C 30.18in /  1021.9hPa WSW 8.0mph /  12.9km/h 15.0mph /  24.1km/h 71% 0.00in /  0mm
14:19 47.8 °F /  8.8 °C 39.2 °F /  4 °C 30.18in /  1021.9hPa WSW 8.0mph /  12.9km/h 15.0mph /  24.1km/h 72% 0.00in /  0mm
14:24 46.7 °F /  8.2 °C 38.1 °F /  3.4 °C 30.18in /  1021.9hPa WSW 7.0mph /  11.3km/h 15.0mph /  24.1km/h 72% 0.00in /  0mm
14:29 46.2 °F /  7.9 °C 38.0 °F /  3.3 °C 30.19in /  1022.2hPa SW 8.0mph /  12.9km/h 15.0mph /  24.1km/h 73% 0.00in /  0mm
14:34 45.7 °F /  7.6 °C 38.2 °F /  3.4 °C 30.18in /  1021.9hPa SW 6.0mph /  9.7km/h 12.0mph /  19.3km/h 75% 0.00in /  0mm
14:39 45.1 °F /  7.3 °C 37.6 °F /  3.1 °C 30.19in /  1022.2hPa WSW 9.0mph /  14.5km/h 12.0mph /  19.3km/h 75% 0.00in /  0mm
14:44 44.6 °F /  7 °C 37.8 °F /  3.2 °C 30.18in /  1021.9hPa WSW 9.0mph /  14.5km/h 13.0mph /  20.9km/h 77% 0.00in /  0mm
14:49 44.7 °F /  7.1 °C 37.6 °F /  3.1 °C 30.18in /  1021.9hPa SW 8.0mph /  12.9km/h 13.0mph /  20.9km/h 76% 0.00in /  0mm
14:54 44.7 °F /  7.1 °C 38.3 °F /  3.5 °C 30.18in /  1021.9hPa SW 4.0mph /  6.4km/h 11.0mph /  17.7km/h 78% 0.00in /  0mm
14:59 44.9 °F /  7.2 °C 38.1 °F /  3.4 °C 30.18in /  1021.9hPa West 5.0mph /  8km/h 10.0mph /  16.1km/h 77% 0.00in /  0mm
15:04 45.0 °F /  7.2 °C 37.9 °F /  3.3 °C 30.18in /  1021.9hPa SW 6.0mph /  9.7km/h 10.0mph /  16.1km/h 76% 0.00in /  0mm
15:09 46.0 °F /  7.8 °C 38.9 °F /  3.8 °C 30.18in /  1021.9hPa WSW 7.0mph /  11.3km/h 11.0mph /  17.7km/h 76% 0.00in /  0mm
15:14 47.1 °F /  8.4 °C 38.9 °F /  3.8 °C 30.18in /  1021.9hPa WSW 7.0mph /  11.3km/h 12.0mph /  19.3km/h 73% 0.00in /  0mm
15:19 47.8 °F /  8.8 °C 39.2 °F /  4 °C 30.18in /  1021.9hPa WSW 7.0mph /  11.3km/h 12.0mph /  19.3km/h 72% 0.00in /  0mm
15:24 47.6 °F /  8.7 °C 37.9 °F /  3.3 °C 30.17in /  1021.6hPa SW 7.0mph /  11.3km/h 13.0mph /  20.9km/h 69% 0.00in /  0mm
15:29 47.3 °F /  8.5 °C 37.6 °F /  3.1 °C 30.17in /  1021.6hPa SW 8.0mph /  12.9km/h 13.0mph /  20.9km/h 69% 0.00in /  0mm
15:34 47.0 °F /  8.3 °C 38.4 °F /  3.6 °C 30.17in /  1021.6hPa SW 4.0mph /  6.4km/h 12.0mph /  19.3km/h 72% 0.00in /  0mm
15:39 47.3 °F /  8.5 °C 38.0 °F /  3.3 °C 30.17in /  1021.6hPa West 4.0mph /  6.4km/h 14.0mph /  22.5km/h 70% 0.00in /  0mm
15:44 47.3 °F /  8.5 °C 38.0 °F /  3.3 °C 30.17in /  1021.6hPa WSW 8.0mph /  12.9km/h 12.0mph /  19.3km/h 70% 0.00in /  0mm
15:49 47.7 °F /  8.7 °C 38.4 °F /  3.6 °C 30.17in /  1021.6hPa SW 7.0mph /  11.3km/h 16.0mph /  25.7km/h 70% 0.00in /  0mm
15:54 47.6 °F /  8.7 °C 38.3 °F /  3.5 °C 30.17in /  1021.6hPa SW 5.0mph /  8km/h 12.0mph /  19.3km/h 70% 0.00in /  0mm
15:59 46.5 °F /  8.1 °C 37.6 °F /  3.1 °C 30.16in /  1021.2hPa WSW 10.0mph /  16.1km/h 13.0mph /  20.9km/h 71% 0.00in /  0mm
16:04 46.2 °F /  7.9 °C 37.3 °F /  2.9 °C 30.16in /  1021.2hPa WSW 8.0mph /  12.9km/h 16.0mph /  25.7km/h 71% 0.00in /  0mm
16:09 46.2 °F /  7.9 °C 37.7 °F /  3.2 °C 30.16in /  1021.2hPa WSW 8.0mph /  12.9km/h 16.0mph /  25.7km/h 72% 0.00in /  0mm
16:14 46.4 °F /  8 °C 37.5 °F /  3.1 °C 30.16in /  1021.2hPa SW 7.0mph /  11.3km/h 13.0mph /  20.9km/h 71% 0.00in /  0mm
16:19 46.2 °F /  7.9 °C 37.3 °F /  2.9 °C 30.16in /  1021.2hPa SW 6.0mph /  9.7km/h 13.0mph /  20.9km/h 71% 0.00in /  0mm
16:24 46.2 °F /  7.9 °C 37.7 °F /  3.2 °C 30.15in /  1020.9hPa SW 5.0mph /  8km/h 9.0mph /  14.5km/h 72% 0.00in /  0mm
16:29 46.4 °F /  8 °C 37.5 °F /  3.1 °C 30.15in /  1020.9hPa WSW 6.0mph /  9.7km/h 13.0mph /  20.9km/h 71% 0.00in /  0mm
16:34 46.1 °F /  7.8 °C 37.2 °F /  2.9 °C 30.15in /  1020.9hPa WSW 7.0mph /  11.3km/h 16.0mph /  25.7km/h 71% 0.00in /  0mm
16:39 45.7 °F /  7.6 °C 37.2 °F /  2.9 °C 30.15in /  1020.9hPa West 5.0mph /  8km/h 12.0mph /  19.3km/h 72% 0.00in /  0mm
16:44 46.1 °F /  7.8 °C 36.9 °F /  2.7 °C 30.15in /  1020.9hPa SSW 4.0mph /  6.4km/h 13.0mph /  20.9km/h 70% 0.00in /  0mm
16:49 45.9 °F /  7.7 °C 37.0 °F /  2.8 °C 30.15in /  1020.9hPa South 7.0mph /  11.3km/h 11.0mph /  17.7km/h 71% 0.00in /  0mm
16:54 45.8 °F /  7.7 °C 36.9 °F /  2.7 °C 30.14in /  1020.5hPa WSW 7.0mph /  11.3km/h 13.0mph /  20.9km/h 71% 0.00in /  0mm
16:59 45.7 °F /  7.6 °C 36.8 °F /  2.7 °C 30.14in /  1020.5hPa West 7.0mph /  11.3km/h 14.0mph /  22.5km/h 71% 0.00in /  0mm
17:04 46.1 °F /  7.8 °C 36.9 °F /  2.7 °C 30.15in /  1020.9hPa SW 6.0mph /  9.7km/h 16.0mph /  25.7km/h 70% 0.00in /  0mm
17:09 46.7 °F /  8.2 °C 37.4 °F /  3 °C 30.15in /  1020.9hPa SW 4.0mph /  6.4km/h 13.0mph /  20.9km/h 70% 0.00in /  0mm
17:14 47.2 °F /  8.4 °C 37.5 °F /  3.1 °C 30.14in /  1020.5hPa WSW 7.0mph /  11.3km/h 13.0mph /  20.9km/h 69% 0.00in /  0mm
17:19 45.9 °F /  7.7 °C 36.3 °F /  2.4 °C 30.14in /  1020.5hPa WSW 7.0mph /  11.3km/h 13.0mph /  20.9km/h 69% 0.00in /  0mm
17:24 45.4 °F /  7.4 °C 36.5 °F /  2.5 °C 30.14in /  1020.5hPa WSW 7.0mph /  11.3km/h 13.0mph /  20.9km/h 71% 0.00in /  0mm
17:29 45.5 °F /  7.5 °C 36.6 °F /  2.6 °C 30.14in /  1020.5hPa WSW 7.0mph /  11.3km/h 13.0mph /  20.9km/h 71% 0.00in /  0mm
17:34 45.9 °F /  7.7 °C 36.7 °F /  2.6 °C 30.14in /  1020.5hPa WSW 6.0mph /  9.7km/h 12.0mph /  19.3km/h 70% 0.00in /  0mm
17:39 45.5 °F /  7.5 °C 36.6 °F /  2.6 °C 30.14in /  1020.5hPa WSW 6.0mph /  9.7km/h 12.0mph /  19.3km/h 71% 0.00in /  0mm
17:44 45.7 °F /  7.6 °C 37.2 °F /  2.9 °C 30.13in /  1020.2hPa SW 6.0mph /  9.7km/h 12.0mph /  19.3km/h 72% 0.00in /  0mm
17:49 45.9 °F /  7.7 °C 36.7 °F /  2.6 °C 30.13in /  1020.2hPa SW 6.0mph /  9.7km/h 14.0mph /  22.5km/h 70% 0.00in /  0mm
17:54 45.8 °F /  7.7 °C 36.6 °F /  2.6 °C 30.14in /  1020.5hPa SW 5.0mph /  8km/h 9.0mph /  14.5km/h 70% 0.00in /  0mm
17:59 45.4 °F /  7.4 °C 35.8 °F /  2.1 °C 30.14in /  1020.5hPa SSW 5.0mph /  8km/h 12.0mph /  19.3km/h 69% 0.00in /  0mm
18:04 45.4 °F /  7.4 °C 36.2 °F /  2.3 °C 30.14in /  1020.5hPa WSW 5.0mph /  8km/h 9.0mph /  14.5km/h 70% 0.00in /  0mm
18:09 45.7 °F /  7.6 °C 36.5 °F /  2.5 °C 30.14in /  1020.5hPa SSW 2.0mph /  3.2km/h 9.0mph /  14.5km/h 70% 0.00in /  0mm
18:14 45.9 °F /  7.7 °C 36.7 °F /  2.6 °C 30.14in /  1020.5hPa SSW 4.0mph /  6.4km/h 8.0mph /  12.9km/h 70% 0.00in /  0mm
18:19 45.7 °F /  7.6 °C 36.1 °F /  2.3 °C 30.13in /  1020.2hPa WSW 4.0mph /  6.4km/h 11.0mph /  17.7km/h 69% 0.00in /  0mm
18:24 45.4 °F /  7.4 °C 35.8 °F /  2.1 °C 30.13in /  1020.2hPa SW 6.0mph /  9.7km/h 11.0mph /  17.7km/h 69% 0.00in /  0mm
18:29 45.1 °F /  7.3 °C 35.9 °F /  2.2 °C 30.13in /  1020.2hPa SW 6.0mph /  9.7km/h 12.0mph /  19.3km/h 70% 0.00in /  0mm
18:34 44.8 °F /  7.1 °C 36.0 °F /  2.2 °C 30.13in /  1020.2hPa SW 5.0mph /  8km/h 12.0mph /  19.3km/h 71% 0.00in /  0mm
18:39 44.5 °F /  6.9 °C 35.7 °F /  2.1 °C 30.13in /  1020.2hPa SW 5.0mph /  8km/h 11.0mph /  17.7km/h 71% 0.00in /  0mm
18:44 44.4 °F /  6.9 °C 35.6 °F /  2 °C 30.13in /  1020.2hPa SW 6.0mph /  9.7km/h 11.0mph /  17.7km/h 71% 0.00in /  0mm
18:49 44.2 °F /  6.8 °C 35.4 °F /  1.9 °C 30.13in /  1020.2hPa SW 8.0mph /  12.9km/h 13.0mph /  20.9km/h 71% 0.00in /  0mm
18:54 44.1 °F /  6.7 °C 35.3 °F /  1.8 °C 30.13in /  1020.2hPa SW 8.0mph /  12.9km/h 13.0mph /  20.9km/h 71% 0.00in /  0mm
18:59 43.9 °F /  6.6 °C 35.1 °F /  1.7 °C 30.13in /  1020.2hPa WSW 6.0mph /  9.7km/h 13.0mph /  20.9km/h 71% 0.00in /  0mm
19:04 43.6 °F /  6.4 °C 35.2 °F /  1.8 °C 30.13in /  1020.2hPa WSW 6.0mph /  9.7km/h 13.0mph /  20.9km/h 72% 0.00in /  0mm
19:09 43.4 °F /  6.3 °C 35.0 °F /  1.7 °C 30.13in /  1020.2hPa WSW 9.0mph /  14.5km/h 12.0mph /  19.3km/h 72% 0.00in /  0mm
19:14 43.1 °F /  6.2 °C 35.0 °F /  1.7 °C 30.13in /  1020.2hPa SW 8.0mph /  12.9km/h 12.0mph /  19.3km/h 73% 0.00in /  0mm
19:19 42.8 °F /  6 °C 35.1 °F /  1.7 °C 30.13in /  1020.2hPa SSE 6.0mph /  9.7km/h 9.0mph /  14.5km/h 74% 0.00in /  0mm
19:24 42.6 °F /  5.9 °C 34.9 °F /  1.6 °C 30.12in /  1019.9hPa WSW 4.0mph /  6.4km/h 13.0mph /  20.9km/h 74% 0.00in /  0mm
19:29 42.4 °F /  5.8 °C 35.0 °F /  1.7 °C 30.12in /  1019.9hPa SW 8.0mph /  12.9km/h 9.0mph /  14.5km/h 75% 0.00in /  0mm
19:34 42.2 °F /  5.7 °C 35.2 °F /  1.8 °C 30.12in /  1019.9hPa SW 5.0mph /  8km/h 10.0mph /  16.1km/h 76% 0.00in /  0mm
19:39 42.0 °F /  5.6 °C 35.0 °F /  1.7 °C 30.12in /  1019.9hPa SW 5.0mph /  8km/h 11.0mph /  17.7km/h 76% 0.00in /  0mm
19:44 41.9 °F /  5.5 °C 34.9 °F /  1.6 °C 30.12in /  1019.9hPa South 5.0mph /  8km/h 8.0mph /  12.9km/h 76% 0.00in /  0mm
19:49 41.9 °F /  5.5 °C 34.9 °F /  1.6 °C 30.11in /  1019.5hPa SSW 4.0mph /  6.4km/h 10.0mph /  16.1km/h 76% 0.00in /  0mm
19:54 41.8 °F /  5.4 °C 34.8 °F /  1.6 °C 30.11in /  1019.5hPa SW 9.0mph /  14.5km/h 11.0mph /  17.7km/h 76% 0.00in /  0mm
20:04 41.7 °F /  5.4 °C 34.7 °F /  1.5 °C 30.11in /  1019.5hPa SW 7.0mph /  11.3km/h 8.0mph /  12.9km/h 76% 0.00in /  0mm
20:09 41.7 °F /  5.4 °C 34.7 °F /  1.5 °C 30.11in /  1019.5hPa SW 4.0mph /  6.4km/h 8.0mph /  12.9km/h 76% 0.00in /  0mm
20:14 41.5 °F /  5.3 °C 34.8 °F /  1.6 °C 30.11in /  1019.5hPa SW 3.0mph /  4.8km/h 7.0mph /  11.3km/h 77% 0.00in /  0mm
20:19 41.3 °F /  5.2 °C 34.6 °F /  1.4 °C 30.11in /  1019.5hPa SW 3.0mph /  4.8km/h 7.0mph /  11.3km/h 77% 0.00in /  0mm
20:24 41.2 °F /  5.1 °C 34.9 °F /  1.6 °C 30.11in /  1019.5hPa South 4.0mph /  6.4km/h 9.0mph /  14.5km/h 78% 0.00in /  0mm
20:29 41.1 °F /  5.1 °C 34.8 °F /  1.6 °C 30.12in /  1019.9hPa WSW 9.0mph /  14.5km/h 9.0mph /  14.5km/h 78% 0.00in /  0mm
20:34 41.1 °F /  5.1 °C 34.8 °F /  1.6 °C 30.12in /  1019.9hPa SW 2.0mph /  3.2km/h 9.0mph /  14.5km/h 78% 0.00in /  0mm
20:39 41.1 °F /  5.1 °C 34.8 °F /  1.6 °C 30.12in /  1019.9hPa SW 4.0mph /  6.4km/h 9.0mph /  14.5km/h 78% 0.00in /  0mm
20:44 41.1 °F /  5.1 °C 34.8 °F /  1.6 °C 30.11in /  1019.5hPa SW 4.0mph /  6.4km/h 8.0mph /  12.9km/h 78% 0.00in /  0mm
20:49 41.3 °F /  5.2 °C 35.0 °F /  1.7 °C 30.11in /  1019.5hPa WSW 2.0mph /  3.2km/h 7.0mph /  11.3km/h 78% 0.00in /  0mm
20:54 41.3 °F /  5.2 °C 35.0 °F /  1.7 °C 30.11in /  1019.5hPa SSW 2.0mph /  3.2km/h 7.0mph /  11.3km/h 78% 0.00in /  0mm
20:59 41.5 °F /  5.3 °C 34.8 °F /  1.6 °C 30.12in /  1019.9hPa SW 2.0mph /  3.2km/h 8.0mph /  12.9km/h 77% 0.00in /  0mm
21:04 41.6 °F /  5.3 °C 34.9 °F /  1.6 °C 30.11in /  1019.5hPa SW 4.0mph /  6.4km/h 8.0mph /  12.9km/h 77% 0.00in /  0mm
21:09 41.8 °F /  5.4 °C 34.8 °F /  1.6 °C 30.12in /  1019.9hPa WSW 2.0mph /  3.2km/h 7.0mph /  11.3km/h 76% 0.00in /  0mm
21:14 41.8 °F /  5.4 °C 34.8 °F /  1.6 °C 30.12in /  1019.9hPa SW 4.0mph /  6.4km/h 7.0mph /  11.3km/h 76% 0.00in /  0mm
21:19 41.8 °F /  5.4 °C 34.8 °F /  1.6 °C 30.12in /  1019.9hPa SW 3.0mph /  4.8km/h 6.0mph /  9.7km/h 76% 0.00in /  0mm
21:24 41.8 °F /  5.4 °C 34.5 °F /  1.4 °C 30.12in /  1019.9hPa SW 3.0mph /  4.8km/h 8.0mph /  12.9km/h 75% 0.00in /  0mm
21:29 41.8 °F /  5.4 °C 34.5 °F /  1.4 °C 30.12in /  1019.9hPa SW 4.0mph /  6.4km/h 8.0mph /  12.9km/h 75% 0.00in /  0mm
21:34 41.8 °F /  5.4 °C 34.5 °F /  1.4 °C 30.12in /  1019.9hPa SW 4.0mph /  6.4km/h 6.0mph /  9.7km/h 75% 0.00in /  0mm
21:39 41.8 °F /  5.4 °C 34.5 °F /  1.4 °C 30.12in /  1019.9hPa SW 4.0mph /  6.4km/h 8.0mph /  12.9km/h 75% 0.00in /  0mm
21:44 41.9 °F /  5.5 °C 34.2 °F /  1.2 °C 30.12in /  1019.9hPa WSW 4.0mph /  6.4km/h 8.0mph /  12.9km/h 74% 0.00in /  0mm
21:49 41.8 °F /  5.4 °C 34.1 °F /  1.2 °C 30.12in /  1019.9hPa SW 3.0mph /  4.8km/h 5.0mph /  8km/h 74% 0.00in /  0mm
21:54 41.7 °F /  5.4 °C 34.0 °F /  1.1 °C 30.12in /  1019.9hPa SW 3.0mph /  4.8km/h 7.0mph /  11.3km/h 74% 0.00in /  0mm
21:59 41.6 °F /  5.3 °C 33.9 °F /  1.1 °C 30.12in /  1019.9hPa West 3.0mph /  4.8km/h 5.0mph /  8km/h 74% 0.00in /  0mm
22:04 41.6 °F /  5.3 °C 33.9 °F /  1.1 °C 30.12in /  1019.9hPa South 3.0mph /  4.8km/h 7.0mph /  11.3km/h 74% 0.00in /  0mm
22:09 41.4 °F /  5.2 °C 34.1 °F /  1.2 °C 30.11in /  1019.5hPa SW 4.0mph /  6.4km/h 6.0mph /  9.7km/h 75% 0.00in /  0mm
22:14 41.4 °F /  5.2 °C 34.1 °F /  1.2 °C 30.11in /  1019.5hPa SW 2.0mph /  3.2km/h 6.0mph /  9.7km/h 75% 0.00in /  0mm
22:19 41.2 °F /  5.1 °C 33.5 °F /  0.8 °C 30.11in /  1019.5hPa SW 2.0mph /  3.2km/h 6.0mph /  9.7km/h 74% 0.00in /  0mm
22:24 41.0 °F /  5 °C 33.7 °F /  0.9 °C 30.11in /  1019.5hPa SW 2.0mph /  3.2km/h 5.0mph /  8km/h 75% 0.00in /  0mm
22:29 41.0 °F /  5 °C 33.7 °F /  0.9 °C 30.12in /  1019.9hPa SSW 2.0mph /  3.2km/h 7.0mph /  11.3km/h 75% 0.00in /  0mm
22:34 41.1 °F /  5.1 °C 33.8 °F /  1 °C 30.12in /  1019.9hPa SW 2.0mph /  3.2km/h 5.0mph /  8km/h 75% 0.00in /  0mm
22:39 41.2 °F /  5.1 °C 33.9 °F /  1.1 °C 30.12in /  1019.9hPa WSW 4.0mph /  6.4km/h 5.0mph /  8km/h 75% 0.00in /  0mm
22:44 41.3 °F /  5.2 °C 33.6 °F /  0.9 °C 30.12in /  1019.9hPa SW 2.0mph /  3.2km/h 5.0mph /  8km/h 74% 0.00in /  0mm
22:49 41.2 °F /  5.1 °C 33.5 °F /  0.8 °C 30.11in /  1019.5hPa SW 1.0mph /  1.6km/h 5.0mph /  8km/h 74% 0.00in /  0mm
22:54 41.1 °F /  5.1 °C 33.8 °F /  1 °C 30.11in /  1019.5hPa SW 2.0mph /  3.2km/h 5.0mph /  8km/h 75% 0.00in /  0mm
22:59 40.9 °F /  4.9 °C 33.6 °F /  0.9 °C 30.12in /  1019.9hPa SW 2.0mph /  3.2km/h 5.0mph /  8km/h 75% 0.00in /  0mm
23:04 41.0 °F /  5 °C 33.3 °F /  0.7 °C 30.13in /  1020.2hPa SW 3.0mph /  4.8km/h 6.0mph /  9.7km/h 74% 0.00in /  0mm
23:09 41.2 °F /  5.1 °C 33.5 °F /  0.8 °C 30.12in /  1019.9hPa SW 3.0mph /  4.8km/h 6.0mph /  9.7km/h 74% 0.00in /  0mm
23:14 41.3 °F /  5.2 °C 33.6 °F /  0.9 °C 30.12in /  1019.9hPa SW 3.0mph /  4.8km/h 6.0mph /  9.7km/h 74% 0.00in /  0mm
23:19 41.1 °F /  5.1 °C 33.4 °F /  0.8 °C 30.11in /  1019.5hPa SW 3.0mph /  4.8km/h 5.0mph /  8km/h 74% 0.00in /  0mm
23:24 41.1 °F /  5.1 °C 33.4 °F /  0.8 °C 30.12in /  1019.9hPa SW 3.0mph /  4.8km/h 6.0mph /  9.7km/h 74% 0.00in /  0mm
23:29 41.0 °F /  5 °C 33.3 °F /  0.7 °C 30.11in /  1019.5hPa SW 1.0mph /  1.6km/h 4.0mph /  6.4km/h 74% 0.00in /  0mm
23:34 40.9 °F /  4.9 °C 33.2 °F /  0.7 °C 30.11in /  1019.5hPa SW 1.0mph /  1.6km/h 4.0mph /  6.4km/h 74% 0.00in /  0mm
23:39 41.1 °F /  5.1 °C 33.4 °F /  0.8 °C 30.11in /  1019.5hPa SSW 2.0mph /  3.2km/h 5.0mph /  8km/h 74% 0.00in /  0mm
23:44 40.7 °F /  4.8 °C 33.1 °F /  0.6 °C 30.10in /  1019.2hPa Calm   2.0mph /  3.2km/h 74% 0.00in /  0mm
23:49 40.3 °F /  4.6 °C 33.0 °F /  0.6 °C 30.10in /  1019.2hPa Calm     75% 0.00in /  0mm
23:54 40.0 °F /  4.4 °C 32.7 °F /  0.4 °C 30.10in /  1019.2hPa Calm     75% 0.00in /  0mm
23:59 39.5 °F /  4.2 °C 32.6 °F /  0.3 °C 30.10in /  1019.2hPa Calm     76% 0.00in /  0mm
Buffalo, New York, USA
Compliments of Weather Underground - 2.5 mb